Aeroporto :
LOGIN :

Iscrizione | Disclaimer

   EN    FR    IT 

 










Sommario :    VFR   VFR Marginale   IFR   IFR Intensivo   IFR Molto Intensivo
Visibilità : 
Base nubi : 
>= 8 km
>= 3000ft
5 / 8 km
1000 / 3000 ft
1500m / 5 km
500 / 1000 ft
800 / 1500m
200 / 500 ft
< 800m
< 200 ft
Simboli :   Temporali  Nebbia  Neve Forte  Precipitazioni Forti  Vento > 20 kt
SIGMETs :   Varie  Temporali  Ghiacco  Turbolenza  Onda orograficha  Ceneri Vulcaniche






- Altitudine del aeroporto : 1058 ft
- Codice IATA : SCN


EDDR - Saarbrücken

ULTIMO METAR :
  • 041350Z 17005KT 9999 FEW009 BKN020 06/03 Q0988 NOSIG

METARs OBSOLETI :
  • 041320Z 18006KT 9999 FEW009 BKN020 06/03 Q0988 NOSIG
  • 041250Z 15006KT 110V190 9999 FEW009 BKN020 06/03 Q0988 NOSIG
  • 041220Z 18007KT 9999 FEW009 BKN020 06/03 Q0987 NOSIG
  • 041150Z 16005KT 9999 FEW009 BKN020 06/03 Q0987 NOSIG
  • 041120Z 15006KT 9999 -RA BKN020 06/03 Q0987 NOSIG

TAF TAF EDDR
Valido dal 04 a 12 ore il 05 a 12 ore UTC


041100Z 0412/0512 17008KT 9999 BKN020
PROB30
TEMPO 0415/0424 4000 -RA BKN014
BECMG 0416/0418 11004KT
TEMPO 0500/0509 4000 -RA BR BKN008
BECMG 0505/0508 20006KT



MetMap, La meteo Aeronautica in un colpo d'occhio ! - Copyright ORBIFLY Dicembre 2007 - Disclaimer

ORBIFLY MET'MAP TEAM :

Programmazione e sviluppo : Alexandra Zaïnal
Concezione : Baudouin d'Aumeries
Aiuto per la programmazione : Marc-Olivier Méhu
Supporto tecnico e logistico : Manuel Goepfert
Aiuto per la traduzione : Arnaldo La Scala

Contatto : metmap@orbifly.com




FONTI E CREDITI :

   NOAA